createdAt,value
2023-02-02T00:00:43.154Z,84.8
2023-02-02T00:01:44.559Z,84.5
2023-02-02T00:02:46.309Z,84.6
2023-02-02T00:03:47.878Z,84.8
2023-02-02T00:04:49.283Z,84.8
2023-02-02T00:05:50.699Z,84.6
2023-02-02T00:06:52.116Z,84.6
2023-02-02T00:07:53.531Z,84.6
2023-02-02T00:08:54.941Z,84.3
2023-02-02T00:09:56.383Z,84.4
2023-02-02T00:10:57.800Z,84.5
2023-02-02T00:11:59.252Z,84.3
2023-02-02T00:13:00.631Z,84.5
2023-02-02T00:14:02.046Z,84.3
2023-02-02T00:15:03.466Z,84.4
2023-02-02T00:16:04.995Z,84.1
2023-02-02T00:17:06.384Z,84.2
2023-02-02T00:18:07.799Z,84.1
2023-02-02T00:19:09.210Z,84.1
2023-02-02T00:20:10.629Z,83.8
2023-02-02T00:21:12.044Z,83.8
2023-02-02T00:22:13.462Z,83.3
2023-02-02T00:23:14.880Z,83.2
2023-02-02T00:24:16.289Z,83
2023-02-02T00:25:17.728Z,82.9
2023-02-02T00:26:19.349Z,82.8
2023-02-02T00:27:20.743Z,83
2023-02-02T00:28:22.151Z,82.9
2023-02-02T00:29:23.564Z,82.9
2023-02-02T00:30:25.099Z,83
2023-02-02T00:31:26.591Z,83
2023-02-02T00:32:27.981Z,83
2023-02-02T00:33:29.413Z,82.8
2023-02-02T00:34:30.809Z,82.7
2023-02-02T00:35:32.224Z,82.5
2023-02-02T00:36:33.640Z,82.5
2023-02-02T00:37:35.090Z,82.4
2023-02-02T00:38:36.509Z,82.3
2023-02-02T00:39:37.928Z,82.3
2023-02-02T00:40:39.364Z,82.3
2023-02-02T00:41:40.758Z,82.3
2023-02-02T00:42:42.170Z,82.1
2023-02-02T00:43:43.581Z,82.2
2023-02-02T00:44:44.998Z,82.3
2023-02-02T00:45:46.555Z,82
2023-02-02T00:46:47.942Z,82.1
2023-02-02T00:47:49.383Z,82
2023-02-02T00:48:50.773Z,82
2023-02-02T00:49:52.191Z,81.9
2023-02-02T00:50:53.736Z,82
2023-02-02T00:51:55.103Z,82
2023-02-02T00:52:56.522Z,82
2023-02-02T00:53:57.956Z,81.9
2023-02-02T00:54:59.353Z,82
2023-02-02T00:56:00.862Z,82
2023-02-02T00:57:02.249Z,82.1
2023-02-02T00:58:03.660Z,82.1
2023-02-02T00:59:05.076Z,82.1
2023-02-02T01:00:06.491Z,82.2
2023-02-02T01:01:07.973Z,82.3
2023-02-02T01:02:09.566Z,82.1
2023-02-02T01:03:10.976Z,82.2
2023-02-02T01:04:12.373Z,82.1
2023-02-02T01:05:13.789Z,82
2023-02-02T01:06:15.203Z,82.1
2023-02-02T01:07:16.620Z,82.2
2023-02-02T01:08:18.029Z,82.1
2023-02-02T01:09:19.446Z,82.2
2023-02-02T01:10:20.860Z,82
2023-02-02T01:11:22.367Z,82.2
2023-02-02T01:12:23.747Z,82.2
2023-02-02T01:13:25.161Z,82.2
2023-02-02T01:14:26.573Z,82.4
2023-02-02T01:15:27.990Z,82.4
2023-02-02T01:16:29.578Z,82.5
2023-02-02T01:17:30.969Z,82.4
2023-02-02T01:18:32.379Z,82.5
2023-02-02T01:19:33.812Z,82.5
2023-02-02T01:20:35.210Z,82.3
2023-02-02T01:21:36.624Z,82.3
2023-02-02T01:22:38.043Z,82.5
2023-02-02T01:23:39.450Z,82.6
2023-02-02T01:24:40.874Z,82.6
2023-02-02T01:25:42.283Z,82.6
2023-02-02T01:26:44.103Z,82.7
2023-02-02T01:27:45.586Z,82.7
2023-02-02T01:28:47.001Z,82.7
2023-02-02T01:29:48.436Z,82.6
2023-02-02T01:30:49.934Z,82.5
2023-02-02T01:31:51.663Z,82.5
2023-02-02T01:32:53.052Z,82.3
2023-02-02T01:33:54.466Z,82.2
2023-02-02T01:34:55.876Z,82
2023-02-02T01:35:57.444Z,82
2023-02-02T01:36:58.846Z,82
2023-02-02T01:38:00.283Z,82
2023-02-02T01:39:01.675Z,82
2023-02-02T01:40:03.100Z,82
2023-02-02T01:41:04.563Z,81.8
2023-02-02T01:42:06.191Z,81.6
2023-02-02T01:43:07.605Z,81.7
2023-02-02T01:44:09.022Z,81.7
2023-02-02T01:45:10.435Z,81.7
2023-02-02T01:46:12.011Z,81.8
2023-02-02T01:47:13.409Z,81.9
2023-02-02T01:48:14.832Z,81.9
2023-02-02T01:49:16.241Z,82.1
2023-02-02T01:50:18.034Z,82.1
2023-02-02T01:51:19.449Z,82.1
2023-02-02T01:52:20.886Z,82
2023-02-02T01:53:22.278Z,82
2023-02-02T01:54:23.696Z,82.2
2023-02-02T01:55:26.161Z,82.2
2023-02-02T01:56:27.674Z,82.3
2023-02-02T01:57:29.120Z,82.2
2023-02-02T01:58:30.512Z,82.2
2023-02-02T01:59:31.922Z,82.2
2023-02-02T02:00:33.340Z,82.2
2023-02-02T02:01:34.944Z,82.4
2023-02-02T02:02:36.581Z,82.4
2023-02-02T02:03:37.956Z,82.4
2023-02-02T02:04:39.373Z,82.5
2023-02-02T02:05:40.792Z,82.6
2023-02-02T02:06:42.199Z,82.5
2023-02-02T02:07:43.629Z,82.6
2023-02-02T02:08:45.037Z,82.8
2023-02-02T02:09:46.444Z,82.8
2023-02-02T02:10:47.903Z,82.6
2023-02-02T02:11:49.327Z,82.7
2023-02-02T02:12:50.774Z,82.7
2023-02-02T02:13:52.161Z,82.6
2023-02-02T02:14:53.575Z,82.5
2023-02-02T02:15:54.989Z,82.6
2023-02-02T02:16:56.541Z,82.6
2023-02-02T02:17:57.927Z,82.1
2023-02-02T02:18:59.347Z,81.8
2023-02-02T02:20:00.760Z,81.7
2023-02-02T02:21:02.213Z,81.9
2023-02-02T02:22:03.616Z,81.9
2023-02-02T02:23:05.033Z,81.8
2023-02-02T02:24:06.222Z,82
2023-02-02T02:25:07.643Z,81.9
2023-02-02T02:26:09.037Z,81.7
2023-02-02T02:27:10.479Z,81.6
2023-02-02T02:28:11.895Z,81.7
2023-02-02T02:29:13.285Z,81.7
2023-02-02T02:30:14.695Z,81.9
2023-02-02T02:31:16.549Z,81.4
2023-02-02T02:32:17.985Z,81.5
2023-02-02T02:33:19.421Z,81.4
2023-02-02T02:34:20.836Z,81.6
2023-02-02T02:35:23.014Z,81.5
2023-02-02T02:36:24.572Z,81.5
2023-02-02T02:37:25.983Z,81.2
2023-02-02T02:38:27.396Z,81.1
2023-02-02T02:39:28.814Z,81.2
2023-02-02T02:40:30.232Z,81.2
2023-02-02T02:41:31.641Z,81.2
2023-02-02T02:42:33.055Z,80.9
2023-02-02T02:43:34.516Z,80.9
2023-02-02T02:44:35.893Z,81
2023-02-02T02:45:37.311Z,80.9
2023-02-02T02:46:38.724Z,80.7
2023-02-02T02:47:40.146Z,80.7
2023-02-02T02:48:41.566Z,80.4
2023-02-02T02:49:42.972Z,80.3
2023-02-02T02:50:44.396Z,80.4
2023-02-02T02:51:46.273Z,80.5
2023-02-02T02:52:47.666Z,80.5
2023-02-02T02:53:49.084Z,80.5
2023-02-02T02:54:50.495Z,80.6
2023-02-02T02:55:51.908Z,80.5
2023-02-02T02:56:53.322Z,80.4
2023-02-02T02:57:54.734Z,80.5
2023-02-02T02:58:56.300Z,80.4
2023-02-02T02:59:57.687Z,80.4
2023-02-02T03:00:59.104Z,80.7
2023-02-02T03:02:00.522Z,80.3
2023-02-02T03:03:01.938Z,80.2
2023-02-02T03:04:03.369Z,80.3
2023-02-02T03:05:04.767Z,80.3
2023-02-02T03:06:06.182Z,80.1
2023-02-02T03:07:07.612Z,79.9
2023-02-02T03:08:09.010Z,79.8
2023-02-02T03:09:10.425Z,79.9
2023-02-02T03:10:11.849Z,79.9
2023-02-02T03:11:13.353Z,80
2023-02-02T03:12:14.762Z,80.1
2023-02-02T03:13:16.189Z,80.3
2023-02-02T03:14:17.617Z,80.5
2023-02-02T03:15:19.034Z,80.5
2023-02-02T03:16:20.418Z,80.3
2023-02-02T03:17:21.836Z,80.2
2023-02-02T03:18:23.249Z,80.5
2023-02-02T03:19:24.665Z,80.8
2023-02-02T03:20:26.110Z,81.2
2023-02-02T03:21:27.527Z,81.2
2023-02-02T03:22:28.944Z,81.2
2023-02-02T03:23:30.358Z,81.5
2023-02-02T03:24:31.777Z,81.9
2023-02-02T03:25:33.182Z,82.1
2023-02-02T03:26:34.659Z,82.2
2023-02-02T03:27:36.093Z,82.5
2023-02-02T03:28:37.512Z,82.7
2023-02-02T03:29:38.950Z,82.7
2023-02-02T03:30:40.389Z,82.8
2023-02-02T03:31:42.116Z,82.8
2023-02-02T03:32:43.604Z,83
2023-02-02T03:33:45.020Z,83.2
2023-02-02T03:34:46.441Z,83.2
2023-02-02T03:35:47.842Z,83.2
2023-02-02T03:36:49.260Z,82.9
2023-02-02T03:37:50.675Z,83
2023-02-02T03:38:52.126Z,82.9
2023-02-02T03:39:54.820Z,82.9
2023-02-02T03:40:56.271Z,82.7
2023-02-02T03:41:57.655Z,82.7
2023-02-02T03:42:59.067Z,82.6
2023-02-02T03:44:00.487Z,82.6
2023-02-02T03:45:02.011Z,82.5
2023-02-02T03:46:03.690Z,82.5
2023-02-02T03:47:05.101Z,82.7
2023-02-02T03:48:06.571Z,82.8
2023-02-02T03:49:07.991Z,82.7
2023-02-02T03:50:10.971Z,82.7
2023-02-02T03:51:12.456Z,82.6
2023-02-02T03:52:13.825Z,82.6
2023-02-02T03:53:15.734Z,82.7
2023-02-02T03:54:17.150Z,82.7
2023-02-02T03:55:18.570Z,82.8
2023-02-02T03:56:19.995Z,82.7
2023-02-02T03:57:21.401Z,82.8
2023-02-02T03:58:22.982Z,82.9
2023-02-02T03:59:24.384Z,82.9
2023-02-02T04:00:25.819Z,82.9
2023-02-02T04:01:27.217Z,83
2023-02-02T04:02:28.819Z,83
2023-02-02T04:03:30.204Z,82.9
2023-02-02T04:04:31.613Z,82.9
2023-02-02T04:05:33.031Z,82.9
2023-02-02T04:06:34.448Z,82.9
2023-02-02T04:07:35.874Z,82.9
2023-02-02T04:08:37.276Z,82.8
2023-02-02T04:09:38.690Z,82.8
2023-02-02T04:10:40.104Z,82.8
2023-02-02T04:11:41.518Z,82.9
2023-02-02T04:12:42.932Z,82.9
2023-02-02T04:13:44.348Z,82.9
2023-02-02T04:14:45.766Z,82.9
2023-02-02T04:15:47.199Z,83
2023-02-02T04:16:48.592Z,83
2023-02-02T04:17:50.022Z,83
2023-02-02T04:18:51.424Z,83
2023-02-02T04:19:52.842Z,83
2023-02-02T04:20:54.254Z,83
2023-02-02T04:21:55.665Z,82.9
2023-02-02T04:22:57.080Z,82.8
2023-02-02T04:23:58.496Z,82.8
2023-02-02T04:24:59.913Z,82.9
2023-02-02T04:26:01.321Z,82.9
2023-02-02T04:27:02.738Z,82.9
2023-02-02T04:28:04.153Z,83
2023-02-02T04:29:05.576Z,83
2023-02-02T04:30:06.983Z,82.9
2023-02-02T04:31:08.928Z,82.9
2023-02-02T04:32:10.441Z,82.9
2023-02-02T04:33:11.853Z,82.9
2023-02-02T04:34:13.273Z,83
2023-02-02T04:35:14.685Z,83
2023-02-02T04:36:16.100Z,83
2023-02-02T04:37:17.522Z,83
2023-02-02T04:38:18.932Z,83
2023-02-02T04:39:20.367Z,83.1
2023-02-02T04:40:21.790Z,82.9
2023-02-02T04:41:23.203Z,82.8
2023-02-02T04:42:24.612Z,82.9
2023-02-02T04:43:26.024Z,82.9
2023-02-02T04:44:27.475Z,82.7
2023-02-02T04:45:29.366Z,82.7
2023-02-02T04:46:30.945Z,82.7
2023-02-02T04:47:32.331Z,82.7
2023-02-02T04:48:33.761Z,82.7
2023-02-02T04:49:35.161Z,82.8
2023-02-02T04:50:36.575Z,82.9
2023-02-02T04:51:37.990Z,83
2023-02-02T04:52:39.406Z,83
2023-02-02T04:53:40.831Z,83
2023-02-02T04:54:42.237Z,83.1
2023-02-02T04:55:43.664Z,83.1
2023-02-02T04:56:45.069Z,83.1
2023-02-02T04:57:46.510Z,83.1
2023-02-02T04:58:47.897Z,83.1
2023-02-02T04:59:49.320Z,83.2
2023-02-02T05:00:50.805Z,83.2
2023-02-02T05:01:52.210Z,83.2
2023-02-02T05:02:53.607Z,83.2
2023-02-02T05:03:55.022Z,83.2
2023-02-02T05:04:56.551Z,83.3
2023-02-02T05:05:57.967Z,83.3
2023-02-02T05:06:59.391Z,83.4
2023-02-02T05:08:00.809Z,83.4
2023-02-02T05:09:02.225Z,83.5
2023-02-02T05:10:03.653Z,83.5
2023-02-02T05:11:05.070Z,83.6
2023-02-02T05:12:06.472Z,83.7
2023-02-02T05:13:07.885Z,83.8
2023-02-02T05:14:09.293Z,83.8
2023-02-02T05:15:10.712Z,83.9
2023-02-02T05:16:12.218Z,84
2023-02-02T05:17:13.651Z,84
2023-02-02T05:18:15.030Z,84
2023-02-02T05:19:16.450Z,84
2023-02-02T05:20:17.864Z,84.1
2023-02-02T05:21:19.282Z,84.2
2023-02-02T05:22:20.700Z,84.2
2023-02-02T05:23:22.129Z,84.2
2023-02-02T05:24:23.523Z,84.2
2023-02-02T05:25:26.309Z,84.2
2023-02-02T05:26:28.014Z,84.2
2023-02-02T05:27:29.413Z,84.2
2023-02-02T05:28:30.827Z,84.3
2023-02-02T05:29:32.241Z,84.2
2023-02-02T05:30:34.939Z,84.1
2023-02-02T05:31:36.409Z,84.1
2023-02-02T05:32:37.925Z,84.1
2023-02-02T05:33:39.321Z,84.1
2023-02-02T05:34:40.737Z,84.1
2023-02-02T05:35:42.174Z,84.1
2023-02-02T05:36:43.572Z,84.2
2023-02-02T05:37:44.989Z,84.2
2023-02-02T05:38:46.406Z,84.3
2023-02-02T05:39:47.828Z,84.4
2023-02-02T05:40:49.254Z,84.5
2023-02-02T05:41:50.665Z,84.5
2023-02-02T05:42:52.084Z,84.6
2023-02-02T05:43:53.505Z,84.7
2023-02-02T05:44:54.912Z,84.7
2023-02-02T05:45:56.424Z,84.8
2023-02-02T05:46:57.834Z,84.9
2023-02-02T05:47:59.287Z,84.9
2023-02-02T05:49:00.733Z,85
2023-02-02T05:50:02.104Z,85
2023-02-02T05:51:03.528Z,85.1
2023-02-02T05:52:05.072Z,85.2
2023-02-02T05:53:06.487Z,85.2
2023-02-02T05:54:07.902Z,85.3
2023-02-02T05:55:09.319Z,85.3
2023-02-02T05:56:10.753Z,85.4
2023-02-02T05:57:12.148Z,85.4
2023-02-02T05:58:13.563Z,85.4
2023-02-02T05:59:14.739Z,85.5
2023-02-02T06:00:16.418Z,85.5
2023-02-02T06:01:17.826Z,85.5
2023-02-02T06:02:19.283Z,85.5
2023-02-02T06:03:21.097Z,85.5
2023-02-02T06:04:22.561Z,85.5
2023-02-02T06:05:25.512Z,85.6
2023-02-02T06:06:27.088Z,85.7
2023-02-02T06:07:28.500Z,85.8
2023-02-02T06:08:29.932Z,85.9
2023-02-02T06:09:31.336Z,85.9
2023-02-02T06:10:32.748Z,86
2023-02-02T06:11:34.163Z,86.1
2023-02-02T06:12:35.579Z,86.2
2023-02-02T06:13:36.994Z,86.2
2023-02-02T06:14:38.424Z,86.3
2023-02-02T06:15:39.875Z,86.4
2023-02-02T06:16:41.268Z,86.4
2023-02-02T06:17:42.689Z,86.5
2023-02-02T06:18:44.158Z,86.5
2023-02-02T06:19:45.537Z,86.5
2023-02-02T06:20:46.998Z,86.6
2023-02-02T06:21:48.384Z,86.6
2023-02-02T06:22:49.798Z,86.7
2023-02-02T06:23:51.209Z,86.7
2023-02-02T06:24:52.626Z,86.7
2023-02-02T06:25:54.058Z,86.7
2023-02-02T06:26:55.689Z,86.7
2023-02-02T06:27:57.094Z,86.8
2023-02-02T06:28:58.510Z,86.8
2023-02-02T06:29:59.928Z,86.9
2023-02-02T06:31:01.743Z,86.9
2023-02-02T06:32:03.392Z,86.9
2023-02-02T06:33:04.793Z,86.9
2023-02-02T06:34:06.233Z,86.9
2023-02-02T06:35:07.439Z,87
2023-02-02T06:36:08.836Z,87
2023-02-02T06:37:10.264Z,87
2023-02-02T06:38:11.666Z,87
2023-02-02T06:39:13.078Z,86.9
2023-02-02T06:40:14.499Z,86.9
2023-02-02T06:41:15.915Z,86.9
2023-02-02T06:42:22.696Z,86.9
2023-02-02T06:43:24.120Z,86.9
2023-02-02T06:44:26.347Z,86.9
2023-02-02T06:45:28.146Z,86.9
2023-02-02T06:46:29.743Z,87
2023-02-02T06:47:31.162Z,87
2023-02-02T06:48:32.579Z,86.9
2023-02-02T06:49:34.018Z,86.9
2023-02-02T06:50:35.412Z,86.8
2023-02-02T06:51:36.853Z,86.8
2023-02-02T06:52:38.241Z,86.8
2023-02-02T06:53:39.654Z,86.8
2023-02-02T06:54:41.075Z,86.8
2023-02-02T06:55:42.488Z,86.7
2023-02-02T06:56:43.930Z,86.7
2023-02-02T06:57:45.318Z,86.7
2023-02-02T06:58:46.736Z,86.6
2023-02-02T06:59:48.166Z,86.6
2023-02-02T07:00:49.574Z,86.6
2023-02-02T07:01:51.510Z,86.6
2023-02-02T07:02:53.039Z,86.7
2023-02-02T07:03:54.520Z,86.7
2023-02-02T07:04:55.989Z,86.7
2023-02-02T07:05:57.383Z,86.7
2023-02-02T07:06:58.795Z,86.7
2023-02-02T07:08:00.209Z,86.7
2023-02-02T07:09:04.164Z,86.7
2023-02-02T07:10:05.574Z,86.7
2023-02-02T07:11:17.886Z,86.6
2023-02-02T07:12:21.068Z,86.6
2023-02-02T07:13:22.856Z,86.6
2023-02-02T07:14:24.264Z,86.5
2023-02-02T07:15:26.854Z,86.4
2023-02-02T07:16:28.287Z,86.4
2023-02-02T07:17:29.700Z,86.4
2023-02-02T07:18:31.117Z,86.3
2023-02-02T07:19:32.530Z,86.3
2023-02-02T07:20:34.094Z,86.2
2023-02-02T07:21:36.041Z,86.2
2023-02-02T07:22:37.706Z,86.2
2023-02-02T07:23:39.200Z,86.1
2023-02-02T07:24:40.616Z,86.1
2023-02-02T07:25:44.650Z,86.1
2023-02-02T07:26:46.263Z,86
2023-02-02T07:27:47.680Z,86
2023-02-02T07:28:49.086Z,85.9
2023-02-02T07:29:50.523Z,85.8
2023-02-02T07:30:52.564Z,85.8
2023-02-02T07:31:54.071Z,85.8
2023-02-02T07:32:55.512Z,85.7
2023-02-02T07:33:56.912Z,85.7
2023-02-02T07:34:58.327Z,85.6
2023-02-02T07:35:59.781Z,85.4
2023-02-02T07:37:01.162Z,85.4
2023-02-02T07:38:02.584Z,85.4
2023-02-02T07:39:04.015Z,85.3
2023-02-02T07:40:05.407Z,85.3
2023-02-02T07:41:06.862Z,85.3
2023-02-02T07:42:08.241Z,85.3
2023-02-02T07:43:09.660Z,85.2
2023-02-02T07:44:13.555Z,85.2
2023-02-02T07:45:28.824Z,85.2
2023-02-02T07:46:30.659Z,85.2
2023-02-02T07:47:32.057Z,85.2
2023-02-02T07:48:33.476Z,85.2
2023-02-02T07:49:34.889Z,85.3
2023-02-02T07:50:36.320Z,85.4
2023-02-02T07:51:47.717Z,85.4
2023-02-02T07:52:49.240Z,85.5
2023-02-02T07:53:50.664Z,85.5
2023-02-02T07:55:09.036Z,85.6
2023-02-02T07:56:15.061Z,85.7
2023-02-02T07:57:16.480Z,85.7
2023-02-02T07:58:17.898Z,85.7
2023-02-02T07:59:19.309Z,85.7
2023-02-02T08:00:20.755Z,85.6
2023-02-02T08:01:22.175Z,85.5
2023-02-02T08:02:23.572Z,85.5
2023-02-02T08:03:24.979Z,85.4
2023-02-02T08:04:26.399Z,85.3
2023-02-02T08:05:28.714Z,85.2
2023-02-02T08:06:30.461Z,85.3
2023-02-02T08:07:31.910Z,85.3
2023-02-02T08:08:33.292Z,85.2
2023-02-02T08:09:34.706Z,85
2023-02-02T08:10:36.124Z,84.9
2023-02-02T08:11:37.552Z,84.9
2023-02-02T08:12:38.957Z,84.9
2023-02-02T08:13:40.369Z,84.8
2023-02-02T08:14:41.799Z,84.7
2023-02-02T08:15:43.206Z,84.6
2023-02-02T08:16:44.617Z,84.5
2023-02-02T08:17:46.034Z,84.3
2023-02-02T08:18:47.451Z,84
2023-02-02T08:19:48.864Z,83.9
2023-02-02T08:20:50.290Z,83.8
2023-02-02T08:21:51.706Z,83.8
2023-02-02T08:22:53.146Z,83.6
2023-02-02T08:23:54.539Z,83.5
2023-02-02T08:24:55.959Z,83.4
2023-02-02T08:25:57.375Z,83.3
2023-02-02T08:26:59.028Z,83.3
2023-02-02T08:28:00.476Z,83.2
2023-02-02T08:29:01.857Z,83.2
2023-02-02T08:30:03.309Z,83.2
2023-02-02T08:31:04.734Z,83.3
2023-02-02T08:32:06.143Z,83.3
2023-02-02T08:33:07.568Z,83.1
2023-02-02T08:34:08.979Z,83
2023-02-02T08:35:10.386Z,83
2023-02-02T08:36:11.806Z,83.1
2023-02-02T08:37:13.227Z,83.1
2023-02-02T08:38:14.660Z,83.1
2023-02-02T08:39:16.176Z,83.1
2023-02-02T08:40:17.801Z,83.2
2023-02-02T08:41:19.274Z,83.1
2023-02-02T08:42:20.690Z,82.9
2023-02-02T08:43:22.106Z,82.7
2023-02-02T08:46:00.649Z,82.4
2023-02-02T08:47:05.887Z,82.3
2023-02-02T08:48:13.552Z,82.2
2023-02-02T08:49:14.975Z,82.1
2023-02-02T08:50:16.390Z,82
2023-02-02T08:51:17.811Z,82
2023-02-02T08:52:19.219Z,81.9
2023-02-02T08:53:20.659Z,81.9
2023-02-02T08:54:22.047Z,81.6
2023-02-02T08:55:24.708Z,81.5
2023-02-02T08:56:26.343Z,81.5
2023-02-02T08:57:27.789Z,81.4
2023-02-02T08:58:29.203Z,81.2
2023-02-02T08:59:30.618Z,81.1
2023-02-02T09:00:32.030Z,81.2
2023-02-02T09:01:33.446Z,81.1
2023-02-02T09:02:34.911Z,81.1
2023-02-02T09:03:36.337Z,81.1
2023-02-02T09:04:37.743Z,81.1
2023-02-02T09:05:39.156Z,81.2
2023-02-02T09:06:40.639Z,81.3
2023-02-02T09:07:42.037Z,81.3
2023-02-02T09:08:43.866Z,81.1
2023-02-02T09:09:45.276Z,81
2023-02-02T09:10:46.694Z,80.9
2023-02-02T09:11:48.114Z,80.9
2023-02-02T09:12:49.523Z,80.9
2023-02-02T09:13:50.950Z,80.8
2023-02-02T09:14:52.363Z,80.8
2023-02-02T09:15:53.778Z,80.6
2023-02-02T09:16:55.597Z,80.6
2023-02-02T09:17:57.118Z,80.8
2023-02-02T09:18:58.573Z,80.9
2023-02-02T09:19:59.956Z,80.9
2023-02-02T09:21:01.422Z,81
2023-02-02T09:22:02.840Z,81.1
2023-02-02T09:23:04.263Z,81.1
2023-02-02T09:24:05.699Z,81.1
2023-02-02T09:25:07.095Z,81.1
2023-02-02T09:26:08.505Z,81.1
2023-02-02T09:27:09.922Z,81.2
2023-02-02T09:28:11.338Z,81.2
2023-02-02T09:29:12.774Z,81.1
2023-02-02T09:30:14.174Z,80.9
2023-02-02T09:31:15.915Z,80.7
2023-02-02T09:32:17.323Z,80.6
2023-02-02T09:33:18.741Z,80.6
2023-02-02T09:34:20.165Z,80.5
2023-02-02T09:35:21.589Z,80.5
2023-02-02T09:36:22.996Z,80.5
2023-02-02T09:37:24.410Z,80.6
2023-02-02T09:38:25.824Z,80.6
2023-02-02T09:39:27.266Z,80.5
2023-02-02T09:40:28.660Z,80.5
2023-02-02T09:41:30.071Z,80.6
2023-02-02T09:42:31.488Z,80.5
2023-02-02T09:43:32.909Z,80.3
2023-02-02T09:44:34.326Z,80.3
2023-02-02T09:45:35.860Z,80.4
2023-02-02T09:46:37.248Z,80.2
2023-02-02T09:47:38.789Z,79.8
2023-02-02T09:48:40.209Z,79.8
2023-02-02T09:49:41.618Z,79.9
2023-02-02T09:50:43.039Z,79.9
2023-02-02T09:51:44.454Z,79.9
2023-02-02T09:52:45.866Z,79.9
2023-02-02T09:53:56.725Z,79.7
2023-02-02T09:54:58.165Z,79.7
2023-02-02T09:55:59.547Z,79.7
2023-02-02T09:57:00.985Z,79.8
2023-02-02T09:58:02.406Z,79.9
2023-02-02T09:59:24.552Z,79.8
2023-02-02T10:00:26.077Z,79.8
2023-02-02T10:01:27.587Z,79.5
2023-02-02T10:02:29.064Z,79.2
2023-02-02T10:03:30.621Z,78.7
2023-02-02T10:04:32.003Z,78.7
2023-02-02T10:05:33.430Z,78.6
2023-02-02T10:06:34.831Z,78.6
2023-02-02T10:07:36.264Z,78.6
2023-02-02T10:08:37.673Z,78.7
2023-02-02T10:09:39.079Z,78.8
2023-02-02T10:10:40.519Z,78.8
2023-02-02T10:11:41.913Z,78.7
2023-02-02T10:12:43.328Z,78.4
2023-02-02T10:13:44.818Z,78.2
2023-02-02T10:14:46.487Z,78.1
2023-02-02T10:15:48.033Z,78.1
2023-02-02T10:16:49.435Z,78.1
2023-02-02T10:17:50.850Z,77.9
2023-02-02T10:18:52.277Z,77.7
2023-02-02T10:19:53.203Z,77.8
2023-02-02T10:20:54.790Z,77.6
2023-02-02T10:21:56.206Z,77.6
2023-02-02T10:22:57.624Z,77.1
2023-02-02T10:24:02.773Z,77
2023-02-02T10:25:04.183Z,76.3
2023-02-02T10:26:05.670Z,76.5
2023-02-02T10:27:07.112Z,76.7
2023-02-02T10:28:08.492Z,76.9
2023-02-02T10:29:09.904Z,76.8
2023-02-02T10:30:11.324Z,76.8
2023-02-02T10:31:13.166Z,76.8
2023-02-02T10:32:14.664Z,77
2023-02-02T10:33:16.069Z,76.7
2023-02-02T10:34:17.495Z,76.7
2023-02-02T10:35:18.897Z,76.8
2023-02-02T10:36:20.311Z,77
2023-02-02T10:37:21.733Z,77.5
2023-02-02T10:38:23.145Z,77.8
2023-02-02T10:39:24.682Z,78
2023-02-02T10:40:27.451Z,76.7
2023-02-02T10:41:29.166Z,76.5
2023-02-02T10:42:30.561Z,76.6
2023-02-02T10:43:31.977Z,77
2023-02-02T10:44:33.394Z,77.1
2023-02-02T10:45:34.807Z,77.2
2023-02-02T10:46:36.494Z,77.4
2023-02-02T10:47:37.985Z,77.6
2023-02-02T10:48:39.402Z,77.8
2023-02-02T10:49:40.865Z,77.8
2023-02-02T10:50:42.310Z,77.2
2023-02-02T10:51:43.704Z,77.1
2023-02-02T10:52:45.148Z,76.4
2023-02-02T10:53:46.529Z,76.2
2023-02-02T10:55:01.574Z,75.9
2023-02-02T10:56:04.261Z,75.8
2023-02-02T10:57:05.723Z,75.1
2023-02-02T10:58:07.108Z,75.1
2023-02-02T10:59:08.651Z,74.8
2023-02-02T11:00:10.060Z,74.6
2023-02-02T11:01:11.763Z,75.1
2023-02-02T11:02:22.366Z,74.9
2023-02-02T11:03:24.076Z,74.9
2023-02-02T11:04:25.504Z,74.8
2023-02-02T11:05:26.911Z,74.4
2023-02-02T11:06:28.399Z,73.7
2023-02-02T11:07:29.770Z,73.8
2023-02-02T11:08:31.331Z,73.7
2023-02-02T11:09:32.738Z,73.4
2023-02-02T11:10:36.069Z,73.3
2023-02-02T11:11:38.346Z,73.3
2023-02-02T11:12:39.777Z,73.3
2023-02-02T11:13:41.170Z,73.3
2023-02-02T11:14:46.858Z,73.3
2023-02-02T11:15:48.659Z,73.3
2023-02-02T11:16:50.233Z,73.4
2023-02-02T11:17:51.765Z,73.6
2023-02-02T11:18:53.186Z,73.4
2023-02-02T11:19:54.604Z,73.1
2023-02-02T11:20:56.051Z,72.6
2023-02-02T11:21:57.455Z,71.5
2023-02-02T11:22:58.873Z,72.1
2023-02-02T11:24:00.297Z,72.2
2023-02-02T11:25:01.695Z,71.9
2023-02-02T11:26:03.242Z,72.3
2023-02-02T11:27:04.719Z,72.9
2023-02-02T11:28:06.141Z,72.9
2023-02-02T11:29:07.531Z,72.8
2023-02-02T11:30:08.948Z,72.9
2023-02-02T11:31:10.790Z,73
2023-02-02T11:32:12.292Z,73
2023-02-02T11:33:13.720Z,73.2
2023-02-02T11:34:15.120Z,73.2
2023-02-02T11:35:16.543Z,72.8
2023-02-02T11:36:17.952Z,72.8
2023-02-02T11:37:19.365Z,73.1
2023-02-02T11:38:20.782Z,73
2023-02-02T11:39:22.199Z,72.8
2023-02-02T11:40:25.107Z,72.6
2023-02-02T11:41:26.693Z,72.4
2023-02-02T11:42:28.115Z,71.9
2023-02-02T11:43:29.726Z,71.7
2023-02-02T11:44:31.113Z,71.2
2023-02-02T11:45:32.522Z,71.1
2023-02-02T11:46:34.097Z,71.2
2023-02-02T11:47:35.644Z,71.5
2023-02-02T11:48:37.078Z,71.8
2023-02-02T11:49:38.631Z,71.7
2023-02-02T11:50:40.276Z,71.7
2023-02-02T11:51:41.678Z,71.7
2023-02-02T11:52:43.102Z,71.6
2023-02-02T11:53:44.506Z,71.6
2023-02-02T11:54:45.923Z,71.8
2023-02-02T11:55:47.055Z,71.9
2023-02-02T11:56:48.480Z,71.9
2023-02-02T11:57:49.901Z,72.4
2023-02-02T11:58:51.329Z,72.8
2023-02-02T11:59:52.716Z,73.2
2023-02-02T12:00:54.143Z,73.8
2023-02-02T12:01:55.560Z,74.3
2023-02-02T12:02:56.984Z,74.8
2023-02-02T12:03:58.468Z,74.8
2023-02-02T12:04:59.927Z,74.9
2023-02-02T12:06:01.349Z,74.6
2023-02-02T12:07:02.765Z,74.7
2023-02-02T12:08:04.178Z,74.8
2023-02-02T12:09:05.591Z,75.1
2023-02-02T12:10:07.049Z,75.2
2023-02-02T12:11:08.435Z,75.5
2023-02-02T12:12:09.846Z,75.7
2023-02-02T12:13:11.265Z,75.9
2023-02-02T12:14:12.861Z,76.2
2023-02-02T12:15:14.249Z,76
2023-02-02T12:16:15.834Z,75.7
2023-02-02T12:17:17.330Z,75.8
2023-02-02T12:18:18.830Z,75.9
2023-02-02T12:19:20.245Z,75.7
2023-02-02T12:20:21.658Z,75.4
2023-02-02T12:21:23.074Z,75
2023-02-02T12:22:24.733Z,74.6
2023-02-02T12:23:26.483Z,74.8
2023-02-02T12:24:27.895Z,74.9
2023-02-02T12:25:29.325Z,74.7
2023-02-02T12:26:30.411Z,74.6
2023-02-02T12:27:31.842Z,74.4
2023-02-02T12:28:33.246Z,74.4
2023-02-02T12:29:34.934Z,74.2
2023-02-02T12:30:36.549Z,74
2023-02-02T12:31:38.076Z,74
2023-02-02T12:32:39.477Z,73.5
2023-02-02T12:33:40.898Z,73.1
2023-02-02T12:34:42.429Z,73.1
2023-02-02T12:35:43.844Z,73
2023-02-02T12:36:45.283Z,72.6
2023-02-02T12:37:46.726Z,72.1
2023-02-02T12:38:48.138Z,72.4
2023-02-02T12:39:49.557Z,72.3
2023-02-02T12:40:51.013Z,72.2
2023-02-02T12:41:52.395Z,72.5
2023-02-02T12:42:53.965Z,72.7
2023-02-02T12:43:55.600Z,72.7
2023-02-02T12:44:57.038Z,73.2
2023-02-02T12:45:58.553Z,72.4
2023-02-02T12:47:00.024Z,71.7
2023-02-02T12:48:01.474Z,71.1
2023-02-02T12:49:02.857Z,70.7
2023-02-02T12:50:04.279Z,70.5
2023-02-02T12:51:05.705Z,70.3
2023-02-02T12:52:07.103Z,70.1
2023-02-02T12:53:13.755Z,69.7
2023-02-02T12:54:54.500Z,69.8
2023-02-02T12:55:58.057Z,70.1
2023-02-02T12:56:59.588Z,70.6
2023-02-02T12:58:01.000Z,70.3
2023-02-02T12:59:02.421Z,70.1
2023-02-02T13:00:03.875Z,70.5
2023-02-02T13:01:05.441Z,69.9
2023-02-02T13:02:06.974Z,69.4
2023-02-02T13:03:08.374Z,69.5
2023-02-02T13:04:09.793Z,69.5
2023-02-02T13:05:11.322Z,69.7
2023-02-02T13:06:12.741Z,69.6
2023-02-02T13:07:14.157Z,69.4
2023-02-02T13:08:15.573Z,69.4
2023-02-02T13:09:20.531Z,69.4
2023-02-02T13:10:21.945Z,69.6
2023-02-02T13:11:23.360Z,69.6
2023-02-02T13:12:24.770Z,69.3
2023-02-02T13:13:26.189Z,68.9
2023-02-02T13:14:27.629Z,68.6
2023-02-02T13:15:29.054Z,68.9
2023-02-02T13:16:30.578Z,69.4
2023-02-02T13:17:31.987Z,69.8
2023-02-02T13:18:33.409Z,69.7
2023-02-02T13:19:34.839Z,69.5
2023-02-02T13:20:36.236Z,69.4
2023-02-02T13:21:37.671Z,69.5
2023-02-02T13:22:39.289Z,69.9
2023-02-02T13:23:40.728Z,70.4
2023-02-02T13:24:42.151Z,70.6
2023-02-02T13:25:43.577Z,70.6
2023-02-02T13:26:45.590Z,70.4
2023-02-02T13:27:47.199Z,70.2
2023-02-02T13:28:48.600Z,70.2
2023-02-02T13:29:50.014Z,70.2
2023-02-02T13:30:51.933Z,70.3
2023-02-02T13:31:53.800Z,70.5
2023-02-02T13:32:55.235Z,70.7
2023-02-02T13:33:56.634Z,71
2023-02-02T13:34:58.040Z,71.5
2023-02-02T13:35:59.456Z,70.8
2023-02-02T13:37:00.901Z,70.7
2023-02-02T13:38:02.321Z,70.8
2023-02-02T13:39:03.729Z,70.8
2023-02-02T13:40:05.145Z,71.2
2023-02-02T13:41:06.833Z,71.2
2023-02-02T13:42:08.457Z,71.1
2023-02-02T13:43:09.899Z,70.8
2023-02-02T13:44:11.294Z,70.9
2023-02-02T13:45:12.716Z,70.7
2023-02-02T13:46:14.648Z,70.8
2023-02-02T13:47:16.123Z,71.5
2023-02-02T13:48:17.530Z,71.8
2023-02-02T13:49:18.959Z,71.7